createdAt,value
2022-11-29T00:01:39.728Z,101346.72
2022-11-29T00:04:07.921Z,101340.56
2022-11-29T00:06:36.215Z,101343.19
2022-11-29T00:09:09.465Z,101342.28
2022-11-29T00:11:59.866Z,101342.28
2022-11-29T00:14:28.983Z,101343.19
2022-11-29T00:17:02.037Z,101344.09
2022-11-29T00:19:31.127Z,101344.97
2022-11-29T00:21:58.237Z,101347.59
2022-11-29T00:24:25.368Z,101350.19
2022-11-29T00:26:52.353Z,101342.31
2022-11-29T00:29:19.400Z,101345.81
2022-11-29T00:31:46.486Z,101343.22
2022-11-29T00:34:13.673Z,101346.78
2022-11-29T00:36:40.992Z,101349.41
2022-11-29T00:39:11.712Z,101345.94
2022-11-29T00:41:40.179Z,101354.78
2022-11-29T00:44:07.655Z,101360.94
2022-11-29T00:46:34.778Z,101353.09
2022-11-29T00:49:02.001Z,101354.03
2022-11-29T00:51:29.046Z,101362.78
2022-11-29T00:53:56.251Z,101361.09
2022-11-29T00:56:23.412Z,101362.00
2022-11-29T00:58:50.541Z,101355.88
2022-11-29T01:01:17.856Z,101362.00
2022-11-29T01:03:45.033Z,101360.28
2022-11-29T01:06:16.643Z,101368.16
2022-11-29T01:08:48.196Z,101359.41
2022-11-29T01:11:21.667Z,101370.81
2022-11-29T01:13:59.009Z,101363.00
2022-11-29T01:16:28.143Z,101365.69
2022-11-29T01:18:55.518Z,101366.63
2022-11-29T01:21:24.822Z,101361.41
2022-11-29T01:23:53.320Z,101369.28
2022-11-29T01:26:30.139Z,101365.78
2022-11-29T01:28:59.005Z,101375.38
2022-11-29T01:31:35.831Z,101371.88
2022-11-29T01:34:05.225Z,101376.28
2022-11-29T01:36:32.484Z,101364.88
2022-11-29T01:39:01.678Z,101371.88
2022-11-29T01:41:34.502Z,101381.50
2022-11-29T01:44:26.367Z,101382.41
2022-11-29T01:46:55.303Z,101373.66
2022-11-29T01:49:30.353Z,101381.50
2022-11-29T01:52:09.754Z,101385.88
2022-11-29T01:54:43.736Z,101381.50
2022-11-29T01:57:11.504Z,101387.63
2022-11-29T01:59:46.425Z,101384.09
2022-11-29T02:02:20.507Z,101393.72
2022-11-29T02:04:49.575Z,101387.63
2022-11-29T02:07:17.223Z,101390.25
2022-11-29T02:09:44.368Z,101384.16
2022-11-29T02:12:39.268Z,101387.66
2022-11-29T02:15:27.343Z,101385.88
2022-11-29T02:18:11.104Z,101390.28
2022-11-29T02:21:09.900Z,101387.63
2022-11-29T02:24:01.591Z,101394.59
2022-11-29T02:27:14.470Z,101394.59
2022-11-29T02:30:41.236Z,101385.81
2022-11-29T02:33:38.714Z,101386.63
2022-11-29T02:36:30.544Z,101396.25
2022-11-29T02:39:14.297Z,101387.47
2022-11-29T02:42:22.774Z,101397.97
2022-11-29T02:45:14.497Z,101394.44
2022-11-29T02:48:21.688Z,101399.69
2022-11-29T02:51:46.223Z,101399.66
2022-11-29T02:54:27.817Z,101406.66
2022-11-29T02:57:38.796Z,101411.88
2022-11-29T03:00:13.686Z,101413.63
2022-11-29T03:02:57.440Z,101413.63
2022-11-29T03:05:49.043Z,101425.88
2022-11-29T03:08:52.543Z,101425.06
2022-11-29T03:11:56.919Z,101432.00
2022-11-29T03:14:57.790Z,101432.03
2022-11-29T03:18:02.113Z,101426.75
2022-11-29T03:20:55.521Z,101427.59
2022-11-29T03:23:39.119Z,101434.63
2022-11-29T03:26:14.573Z,101430.25
2022-11-29T03:29:16.492Z,101435.44
2022-11-29T03:32:04.821Z,101445.97
2022-11-29T03:35:03.726Z,101438.94
2022-11-29T03:38:14.841Z,101445.97
2022-11-29T03:41:23.389Z,101448.59
2022-11-29T03:44:08.081Z,101452.09
2022-11-29T03:46:50.111Z,101458.22
2022-11-29T03:49:34.681Z,101461.72
2022-11-29T03:52:42.643Z,101459.97
2022-11-29T03:55:22.000Z,101464.34
2022-11-29T03:58:22.273Z,101462.59
2022-11-29T04:01:01.208Z,101469.59
2022-11-29T04:04:05.325Z,101469.63
2022-11-29T04:07:01.008Z,101468.75
2022-11-29T04:09:50.394Z,101471.34
2022-11-29T04:12:41.982Z,101479.19
2022-11-29T04:15:42.420Z,101475.69
2022-11-29T04:18:36.776Z,101480.06
2022-11-29T04:21:33.597Z,101488.81
2022-11-29T04:24:56.635Z,101495.78
2022-11-29T04:27:49.324Z,101495.78
2022-11-29T04:30:25.734Z,101491.41
2022-11-29T04:33:29.527Z,101486.16
2022-11-29T04:36:32.528Z,101486.16
2022-11-29T04:39:25.756Z,101483.53
2022-11-29T04:42:34.478Z,101487.03
2022-11-29T04:46:03.236Z,101487.91
2022-11-29T04:49:19.700Z,101487.06
2022-11-29T04:52:16.861Z,101494.94
2022-11-29T04:55:35.298Z,101496.66
2022-11-29T04:58:22.663Z,101502.78
2022-11-29T05:01:33.176Z,101504.53
2022-11-29T05:04:20.086Z,101505.41
2022-11-29T05:07:11.756Z,101508.94
2022-11-29T05:10:20.278Z,101520.31
2022-11-29T05:13:24.526Z,101526.47
2022-11-29T05:16:38.751Z,101526.47
2022-11-29T05:19:46.748Z,101536.09
2022-11-29T05:22:39.510Z,101547.47
2022-11-29T05:25:55.094Z,101539.59
2022-11-29T05:28:57.652Z,101547.50
2022-11-29T05:31:55.174Z,101548.41
2022-11-29T05:34:50.621Z,101550.19
2022-11-29T05:37:44.710Z,101550.16
2022-11-29T05:40:14.901Z,101552.78
2022-11-29T05:43:21.354Z,101551.94
2022-11-29T05:46:07.175Z,101558.97
2022-11-29T05:48:51.023Z,101557.25
2022-11-29T05:51:33.807Z,101556.38
2022-11-29T05:54:19.578Z,101564.28
2022-11-29T05:57:14.543Z,101564.25
2022-11-29T05:59:49.259Z,101570.41
2022-11-29T06:03:14.489Z,101572.16
2022-11-29T06:05:56.676Z,101586.19
2022-11-29T06:09:05.725Z,101589.69
2022-11-29T06:11:58.809Z,101597.59
2022-11-29T06:15:17.709Z,101597.63
2022-11-29T06:18:23.597Z,101596.75
2022-11-29T06:21:11.215Z,101600.31
2022-11-29T06:23:59.156Z,101594.22
2022-11-29T06:26:55.447Z,101597.72
2022-11-29T06:29:51.760Z,101597.72
2022-11-29T06:32:40.232Z,101599.47
2022-11-29T06:35:35.008Z,101600.34
2022-11-29T06:38:19.476Z,101605.59
2022-11-29T06:40:50.587Z,101605.63
2022-11-29T06:43:20.484Z,101613.50
2022-11-29T06:45:57.478Z,101618.75
2022-11-29T06:48:29.014Z,101620.53
2022-11-29T06:51:44.201Z,101632.78
2022-11-29T06:54:25.220Z,101633.63
2022-11-29T06:57:16.352Z,101643.22
2022-11-29T07:00:06.569Z,101645.88
2022-11-29T07:03:18.741Z,101645.00
2022-11-29T07:05:46.782Z,101651.13
2022-11-29T07:08:24.095Z,101649.41
2022-11-29T07:10:55.521Z,101653.78
2022-11-29T07:13:23.242Z,101651.16
2022-11-29T07:15:56.366Z,101654.66
2022-11-29T07:18:39.049Z,101663.41
2022-11-29T07:21:59.125Z,101661.63
2022-11-29T07:25:00.348Z,101664.28
2022-11-29T07:27:45.406Z,101675.66
2022-11-29T07:30:50.243Z,101665.22
2022-11-29T07:33:49.827Z,101678.34
2022-11-29T07:36:55.041Z,101671.34
2022-11-29T07:39:48.446Z,101680.09
2022-11-29T07:42:40.331Z,101681.81
2022-11-29T07:45:20.936Z,101686.22
2022-11-29T07:47:48.781Z,101697.59
2022-11-29T07:50:17.025Z,101696.75
2022-11-29T07:52:44.264Z,101701.16
2022-11-29T07:55:18.924Z,101689.81
2022-11-29T07:57:47.570Z,101692.44
2022-11-29T08:00:15.953Z,101692.44
2022-11-29T08:02:43.045Z,101689.81
2022-11-29T08:05:11.463Z,101691.56
2022-11-29T08:07:41.333Z,101703.81
2022-11-29T08:10:16.141Z,101696.81
2022-11-29T08:12:47.413Z,101701.22
2022-11-29T08:15:15.135Z,101703.84
2022-11-29T08:17:42.486Z,101697.69
2022-11-29T08:20:12.219Z,101709.06
2022-11-29T08:22:39.697Z,101716.06
2022-11-29T08:25:08.634Z,101712.56
2022-11-29T08:27:37.559Z,101718.69
2022-11-29T08:30:06.984Z,101710.81
2022-11-29T08:32:34.783Z,101722.16
2022-11-29T08:35:01.943Z,101729.16
2022-11-29T08:37:29.153Z,101728.28
2022-11-29T08:39:58.247Z,101730.06
2022-11-29T08:42:25.380Z,101732.66
2022-11-29T08:44:52.435Z,101738.78
2022-11-29T08:47:37.396Z,101740.53
2022-11-29T08:50:16.935Z,101741.38
2022-11-29T08:53:06.550Z,101746.63
2022-11-29T08:55:39.942Z,101755.38
2022-11-29T08:58:12.716Z,101750.13
2022-11-29T09:00:41.263Z,101747.50
2022-11-29T09:03:27.354Z,101753.59
2022-11-29T09:05:54.482Z,101752.72
2022-11-29T09:08:21.589Z,101756.25
2022-11-29T09:10:49.250Z,101755.38
2022-11-29T09:13:17.533Z,101763.22
2022-11-29T09:15:44.602Z,101764.97
2022-11-29T09:18:11.727Z,101765.84
2022-11-29T09:20:46.346Z,101776.28
2022-11-29T09:23:13.433Z,101778.91
2022-11-29T09:25:47.186Z,101778.94
2022-11-29T09:28:14.191Z,101778.97
2022-11-29T09:30:41.234Z,101778.09
2022-11-29T09:33:08.315Z,101786.88
2022-11-29T09:35:35.318Z,101793.84
2022-11-29T09:38:02.390Z,101798.22
2022-11-29T09:40:45.922Z,101799.94
2022-11-29T09:43:43.000Z,101804.31
2022-11-29T09:46:24.071Z,101809.56
2022-11-29T09:49:42.347Z,101808.69
2022-11-29T09:52:46.291Z,101803.44
2022-11-29T09:55:50.827Z,101806.06
2022-11-29T09:58:26.963Z,101807.81
2022-11-29T10:01:08.465Z,101816.56
2022-11-29T10:03:45.232Z,101805.19
2022-11-29T10:06:40.846Z,101819.19
2022-11-29T10:09:23.253Z,101819.19
2022-11-29T10:12:16.951Z,101818.31
2022-11-29T10:15:17.040Z,101817.44
2022-11-29T10:17:58.999Z,101811.31
2022-11-29T10:20:37.837Z,101818.31
2022-11-29T10:23:18.066Z,101814.84
2022-11-29T10:25:51.977Z,101813.09
2022-11-29T10:28:27.582Z,101814.81
2022-11-29T10:30:58.923Z,101817.44
2022-11-29T10:33:31.090Z,101812.19
2022-11-29T10:36:15.949Z,101820.94
2022-11-29T10:38:44.790Z,101820.09
2022-11-29T10:41:20.675Z,101810.47
2022-11-29T10:43:50.461Z,101809.59
2022-11-29T10:46:32.293Z,101808.72
2022-11-29T10:49:04.242Z,101806.97
2022-11-29T10:51:33.731Z,101808.72
2022-11-29T10:54:28.868Z,101811.34
2022-11-29T10:57:00.550Z,101812.19
2022-11-29T10:59:31.007Z,101806.06
2022-11-29T11:01:58.720Z,101810.44
2022-11-29T11:04:44.848Z,101809.56
2022-11-29T11:07:24.062Z,101805.16
2022-11-29T11:09:56.621Z,101811.28
2022-11-29T11:12:31.362Z,101807.78
2022-11-29T11:15:24.083Z,101805.13
2022-11-29T11:18:06.929Z,101806.84
2022-11-29T11:20:42.259Z,101804.19
2022-11-29T11:23:54.638Z,101811.16
2022-11-29T11:26:22.976Z,101820.81
2022-11-29T11:29:01.651Z,101817.34
2022-11-29T11:31:38.034Z,101822.59
2022-11-29T11:34:36.570Z,101819.09
2022-11-29T11:37:16.204Z,101825.22
2022-11-29T11:39:49.014Z,101828.72
2022-11-29T11:42:37.893Z,101828.72
2022-11-29T11:45:10.938Z,101835.72
2022-11-29T11:47:52.267Z,101831.34
2022-11-29T11:50:29.330Z,101833.09
2022-11-29T11:53:02.421Z,101840.09
2022-11-29T11:55:43.782Z,101840.06
2022-11-29T11:58:13.819Z,101835.69
2022-11-29T12:03:54.668Z,101845.31
2022-11-29T12:06:46.302Z,101841.75
2022-11-29T12:10:00.648Z,101847.00
2022-11-29T12:12:39.156Z,101854.91
2022-11-29T12:15:38.223Z,101852.25
2022-11-29T12:18:28.244Z,101853.16
2022-11-29T12:21:10.034Z,101850.56
2022-11-29T12:23:57.977Z,101858.41
2022-11-29T12:26:57.350Z,101855.81
2022-11-29T12:29:31.529Z,101860.19
2022-11-29T12:32:14.649Z,101865.44
2022-11-29T12:35:18.932Z,101861.03
2022-11-29T12:38:20.410Z,101861.00
2022-11-29T12:41:24.041Z,101866.25
2022-11-29T12:44:18.776Z,101868.91
2022-11-29T12:47:34.500Z,101871.56
2022-11-29T12:50:14.278Z,101873.31
2022-11-29T12:52:55.486Z,101882.06
2022-11-29T12:55:45.008Z,101894.31
2022-11-29T12:58:33.116Z,101881.16
2022-11-29T13:01:15.502Z,101883.78
2022-11-29T13:04:38.025Z,101889.88
2022-11-29T13:07:45.967Z,101884.66
2022-11-29T13:10:27.095Z,101896.06
2022-11-29T13:13:04.708Z,101886.41
2022-11-29T13:15:49.932Z,101895.16
2022-11-29T13:18:52.800Z,101903.06
2022-11-29T13:21:53.573Z,101910.09
2022-11-29T13:24:46.792Z,101908.34
2022-11-29T13:27:40.467Z,101911.88
2022-11-29T13:30:13.259Z,101911.00
2022-11-29T13:32:53.630Z,101911.03
2022-11-29T13:35:30.809Z,101907.50
2022-11-29T13:38:08.048Z,101912.78
2022-11-29T13:41:16.828Z,101918.00
2022-11-29T13:44:14.906Z,101925.88
2022-11-29T13:47:09.832Z,101920.63
2022-11-29T13:49:58.229Z,101925.91
2022-11-29T13:52:39.671Z,101920.66
2022-11-29T13:55:12.548Z,101918.06
2022-11-29T13:58:16.710Z,101918.94
2022-11-29T14:00:44.914Z,101921.59
2022-11-29T14:03:24.334Z,101918.06
2022-11-29T14:06:32.314Z,101922.44
2022-11-29T14:09:35.961Z,101923.31
2022-11-29T14:12:24.867Z,101911.06
2022-11-29T14:15:03.351Z,101915.44
2022-11-29T14:17:50.717Z,101911.06
2022-11-29T14:20:23.810Z,101920.69
2022-11-29T14:23:05.877Z,101912.78
2022-11-29T14:25:51.108Z,101909.28
2022-11-29T14:28:21.131Z,101921.53
2022-11-29T14:30:54.639Z,101917.19
2022-11-29T14:34:08.038Z,101922.44
2022-11-29T14:37:18.157Z,101922.44
2022-11-29T14:39:54.831Z,101922.41
2022-11-29T14:42:25.697Z,101934.66
2022-11-29T14:45:01.358Z,101928.53
2022-11-29T14:47:38.827Z,101932.03
2022-11-29T14:50:10.409Z,101938.16
2022-11-29T14:52:51.903Z,101939.03
2022-11-29T14:55:19.842Z,101935.53
2022-11-29T14:57:54.658Z,101930.28
2022-11-29T15:00:25.006Z,101924.16
2022-11-29T15:03:00.718Z,101924.16
2022-11-29T15:05:38.618Z,101931.16
2022-11-29T15:08:34.935Z,101926.78
2022-11-29T15:11:09.761Z,101925.91
2022-11-29T15:13:55.160Z,101936.44
2022-11-29T15:16:44.604Z,101937.28
2022-11-29T15:19:51.289Z,101939.91
2022-11-29T15:22:26.612Z,101936.44
2022-11-29T15:25:10.983Z,101933.84
2022-11-29T15:27:54.209Z,101940.84
2022-11-29T15:30:42.489Z,101948.72
2022-11-29T15:33:23.872Z,101953.09
2022-11-29T15:35:55.238Z,101951.34
2022-11-29T15:38:24.353Z,101945.22
2022-11-29T15:40:55.297Z,101950.44
2022-11-29T15:43:35.625Z,101952.22
2022-11-29T15:46:03.861Z,101951.31
2022-11-29T15:48:32.770Z,101953.06
2022-11-29T15:51:03.195Z,101960.06
2022-11-29T15:53:43.678Z,101958.31
2022-11-29T15:56:24.931Z,101953.94
2022-11-29T15:59:00.775Z,101960.00
2022-11-29T16:01:27.808Z,101963.50
2022-11-29T16:03:58.595Z,101958.22
2022-11-29T16:06:40.702Z,101967.84
2022-11-29T16:09:22.780Z,101961.69
2022-11-29T16:11:50.015Z,101965.19
2022-11-29T16:14:25.044Z,101966.03
2022-11-29T16:16:56.025Z,101972.13
2022-11-29T16:19:33.533Z,101966.00
2022-11-29T16:22:37.641Z,101967.69
2022-11-29T16:25:14.455Z,101968.56
2022-11-29T16:27:42.524Z,101962.44
2022-11-29T16:30:26.086Z,101972.91
2022-11-29T16:33:00.454Z,101971.13
2022-11-29T16:35:31.084Z,101973.78
2022-11-29T16:37:58.428Z,101976.41
2022-11-29T16:40:34.522Z,101969.47
2022-11-29T16:43:53.689Z,101985.22
2022-11-29T16:46:21.921Z,101980.88
2022-11-29T16:48:50.705Z,101980.91
2022-11-29T16:51:38.750Z,101982.66
2022-11-29T16:54:34.366Z,101982.69
2022-11-29T16:57:06.847Z,101987.94
2022-11-29T16:59:35.362Z,101984.44
2022-11-29T17:02:03.015Z,101980.06
2022-11-29T17:04:30.019Z,101986.22
2022-11-29T17:06:57.590Z,101979.25
2022-11-29T17:09:31.209Z,101988.88
2022-11-29T17:12:01.946Z,101984.53
2022-11-29T17:14:29.861Z,101981.03
2022-11-29T17:16:59.832Z,101982.78
2022-11-29T17:19:29.371Z,101988.03
2022-11-29T17:21:56.810Z,101985.41
2022-11-29T17:24:24.770Z,101988.06
2022-11-29T17:26:51.980Z,101996.81
2022-11-29T17:29:19.118Z,102002.06
2022-11-29T17:31:47.330Z,101995.91
2022-11-29T17:34:14.507Z,102000.28
2022-11-29T17:36:42.091Z,101990.69
2022-11-29T17:39:09.367Z,101999.41
2022-11-29T17:41:36.730Z,101989.81
2022-11-29T17:44:04.529Z,101994.16
2022-11-29T17:46:36.388Z,101992.41
2022-11-29T17:49:08.037Z,101990.69
2022-11-29T17:51:54.282Z,101990.69
2022-11-29T17:54:22.500Z,101996.81
2022-11-29T17:56:50.377Z,101997.69
2022-11-29T17:59:17.613Z,102005.56
2022-11-29T18:01:47.389Z,102010.81
2022-11-29T18:04:15.034Z,102009.06
2022-11-29T18:06:42.338Z,102014.31
2022-11-29T18:09:11.065Z,102013.47
2022-11-29T18:11:50.280Z,102020.44
2022-11-29T18:14:23.412Z,102024.81
2022-11-29T18:16:51.667Z,102025.69
2022-11-29T18:19:22.727Z,102028.31
2022-11-29T18:21:51.074Z,102023.06
2022-11-29T18:24:19.332Z,102029.19
2022-11-29T18:26:47.141Z,102031.81
2022-11-29T18:29:14.715Z,102034.44
2022-11-29T18:31:44.911Z,102037.03
2022-11-29T18:34:14.416Z,102034.41
2022-11-29T18:36:46.201Z,102032.69
2022-11-29T18:39:20.039Z,102027.41
2022-11-29T18:41:50.123Z,102023.91
2022-11-29T18:44:21.696Z,102025.66
2022-11-29T18:46:49.152Z,102038.78
2022-11-29T18:49:18.643Z,102039.66
2022-11-29T18:51:47.656Z,102040.53
2022-11-29T18:54:17.966Z,102034.41
2022-11-29T18:56:45.609Z,102042.28
2022-11-29T18:59:17.353Z,102039.66
2022-11-29T19:01:48.278Z,102038.78
2022-11-29T19:04:20.298Z,102038.75
2022-11-29T19:06:48.633Z,102041.38
2022-11-29T19:09:23.360Z,102042.25
2022-11-29T19:11:50.929Z,102039.63
2022-11-29T19:14:19.049Z,102037.91
2022-11-29T19:16:49.293Z,102043.16
2022-11-29T19:19:18.690Z,102044.88
2022-11-29T19:21:45.714Z,102046.63
2022-11-29T19:24:15.635Z,102045.75
2022-11-29T19:26:46.026Z,102043.16
2022-11-29T19:29:14.574Z,102049.28
2022-11-29T19:31:45.311Z,102051.88
2022-11-29T19:34:12.568Z,102044.03
2022-11-29T19:36:43.350Z,102050.16
2022-11-29T19:39:14.409Z,102054.50
2022-11-29T19:41:45.220Z,102051.03
2022-11-29T19:44:12.886Z,102057.13
2022-11-29T19:46:45.928Z,102056.25
2022-11-29T19:49:13.190Z,102058.88
2022-11-29T19:51:41.427Z,102054.50
2022-11-29T19:54:10.207Z,102055.38
2022-11-29T19:56:38.869Z,102047.50
2022-11-29T19:59:07.767Z,102048.38
2022-11-29T20:01:43.658Z,102051.88
2022-11-29T20:04:13.608Z,102057.13
2022-11-29T20:06:41.566Z,102058.84
2022-11-29T20:09:10.068Z,102060.63
2022-11-29T20:11:38.604Z,102067.59
2022-11-29T20:14:08.098Z,102064.09
2022-11-29T20:16:37.809Z,102065.00
2022-11-29T20:19:10.953Z,102063.25
2022-11-29T20:21:48.895Z,102065.84
2022-11-29T20:24:17.718Z,102071.13
2022-11-29T20:26:47.690Z,102074.63
2022-11-29T20:29:16.618Z,102077.22
2022-11-29T20:31:49.931Z,102078.09
2022-11-29T20:34:19.885Z,102079.00
2022-11-29T20:37:08.713Z,102086.88
2022-11-29T20:40:14.853Z,102086.00
2022-11-29T20:43:21.339Z,102085.13
2022-11-29T20:45:49.675Z,102082.50
2022-11-29T20:48:23.041Z,102086.88
2022-11-29T20:51:02.362Z,102089.50
2022-11-29T20:53:38.982Z,102083.38
2022-11-29T20:56:08.751Z,102087.75
2022-11-29T20:58:36.975Z,102085.13
2022-11-29T21:01:07.661Z,102092.13
2022-11-29T21:03:34.990Z,102081.63
2022-11-29T21:06:05.772Z,102085.13
2022-11-29T21:08:33.857Z,102086.88
2022-11-29T21:11:09.942Z,102093.88
2022-11-29T21:13:37.544Z,102092.13
2022-11-29T21:16:05.289Z,102088.66
2022-11-29T21:18:33.596Z,102089.50
2022-11-29T21:21:16.978Z,102090.41
2022-11-29T21:24:10.144Z,102092.13
2022-11-29T21:26:51.882Z,102093.00
2022-11-29T21:32:07.701Z,102099.09
2022-11-29T21:34:34.867Z,102103.47
2022-11-29T21:37:02.128Z,102096.47
2022-11-29T21:39:34.071Z,102098.25
2022-11-29T21:42:01.430Z,102106.13
2022-11-29T21:44:28.381Z,102108.75
2022-11-29T21:46:55.478Z,102101.75
2022-11-29T21:49:22.540Z,102111.38
2022-11-29T21:51:49.687Z,102112.25
2022-11-29T21:54:16.736Z,102106.13
2022-11-29T21:56:43.787Z,102114.00
2022-11-29T21:59:10.757Z,102108.75
2022-11-29T22:01:37.828Z,102113.13
2022-11-29T22:04:05.031Z,102111.38
2022-11-29T22:06:38.257Z,102125.34
2022-11-29T22:09:07.654Z,102122.72
2022-11-29T22:11:35.444Z,102109.63
2022-11-29T22:14:18.344Z,102108.75
2022-11-29T22:17:01.034Z,102112.25
2022-11-29T22:19:39.470Z,102117.47
2022-11-29T22:22:09.072Z,102116.56
2022-11-29T22:24:37.967Z,102113.97
2022-11-29T22:27:05.041Z,102111.34
2022-11-29T22:29:32.115Z,102113.06
2022-11-29T22:31:59.604Z,102112.22
2022-11-29T22:34:28.200Z,102113.06
2022-11-29T22:36:56.293Z,102116.56
2022-11-29T22:39:24.070Z,102115.69
2022-11-29T22:41:54.783Z,102113.97
2022-11-29T22:44:25.089Z,102120.09
2022-11-29T22:46:53.200Z,102120.97
2022-11-29T22:49:20.480Z,102120.97
2022-11-29T22:51:47.808Z,102120.97
2022-11-29T22:54:16.372Z,102118.34
2022-11-29T22:56:45.231Z,102120.06
2022-11-29T22:59:13.141Z,102129.69
2022-11-29T23:01:41.969Z,102131.47
2022-11-29T23:04:11.501Z,102131.47
2022-11-29T23:06:45.306Z,102127.06
2022-11-29T23:09:16.419Z,102134.09
2022-11-29T23:11:46.367Z,102136.69
2022-11-29T23:14:13.911Z,102132.31
2022-11-29T23:16:41.487Z,102133.22
2022-11-29T23:19:08.793Z,102141.97
2022-11-29T23:21:40.460Z,102133.22
2022-11-29T23:24:07.981Z,102141.09
2022-11-29T23:26:40.516Z,102136.75
2022-11-29T23:29:12.375Z,102138.47
2022-11-29T23:31:40.361Z,102138.47
2022-11-29T23:34:08.315Z,102135.88
2022-11-29T23:36:36.413Z,102141.09
2022-11-29T23:39:06.551Z,102141.97
2022-11-29T23:41:36.438Z,102137.59
2022-11-29T23:44:05.883Z,102142.00
2022-11-29T23:46:35.172Z,102145.47
2022-11-29T23:49:02.486Z,102148.09
2022-11-29T23:51:30.024Z,102149.00
2022-11-29T23:54:03.964Z,102142.88
2022-11-29T23:56:35.222Z,102146.38
2022-11-29T23:59:02.614Z,102149.00
